sensor_id;sensor_type;location;lat;lon;timestamp;temperature;humidity
69823;SHT31;57119;52.516;13.508;2023-07-31T00:01:55;15.56;99.70
69823;SHT31;57119;52.516;13.508;2023-07-31T00:04:20;15.40;99.89
69823;SHT31;57119;52.516;13.508;2023-07-31T00:06:46;15.37;99.99
69823;SHT31;57119;52.516;13.508;2023-07-31T00:09:11;15.22;99.99
69823;SHT31;57119;52.516;13.508;2023-07-31T00:11:36;15.18;99.99
69823;SHT31;57119;52.516;13.508;2023-07-31T00:14:02;15.05;99.99
69823;SHT31;57119;52.516;13.508;2023-07-31T00:16:27;15.09;99.99
69823;SHT31;57119;52.516;13.508;2023-07-31T00:18:53;15.00;99.99
69823;SHT31;57119;52.516;13.508;2023-07-31T00:21:18;14.96;99.99
69823;SHT31;57119;52.516;13.508;2023-07-31T00:23:43;14.99;99.99
69823;SHT31;57119;52.516;13.508;2023-07-31T00:26:09;15.00;99.99
69823;SHT31;57119;52.516;13.508;2023-07-31T00:28:34;14.96;99.99
69823;SHT31;57119;52.516;13.508;2023-07-31T00:31:00;14.98;99.99
69823;SHT31;57119;52.516;13.508;2023-07-31T00:33:25;14.85;99.99
69823;SHT31;57119;52.516;13.508;2023-07-31T00:35:50;14.85;99.99
69823;SHT31;57119;52.516;13.508;2023-07-31T00:38:16;14.87;99.99
69823;SHT31;57119;52.516;13.508;2023-07-31T00:40:41;14.82;99.99
69823;SHT31;57119;52.516;13.508;2023-07-31T00:43:07;14.85;99.99
69823;SHT31;57119;52.516;13.508;2023-07-31T00:45:32;14.82;99.99
69823;SHT31;57119;52.516;13.508;2023-07-31T00:47:58;14.78;99.99
69823;SHT31;57119;52.516;13.508;2023-07-31T00:50:25;14.79;99.99
69823;SHT31;57119;52.516;13.508;2023-07-31T00:52:50;14.78;99.99
69823;SHT31;57119;52.516;13.508;2023-07-31T00:55:16;14.79;99.99
69823;SHT31;57119;52.516;13.508;2023-07-31T00:57:42;14.82;99.99
69823;SHT31;57119;52.516;13.508;2023-07-31T01:00:08;14.82;99.99
69823;SHT31;57119;52.516;13.508;2023-07-31T01:02:34;14.87;99.99
69823;SHT31;57119;52.516;13.508;2023-07-31T01:05:01;14.92;99.99
69823;SHT31;57119;52.516;13.508;2023-07-31T01:07:51;14.99;99.99
69823;SHT31;57119;52.516;13.508;2023-07-31T01:10:22;15.15;99.99
69823;SHT31;57119;52.516;13.508;2023-07-31T01:12:52;15.09;99.99
69823;SHT31;57119;52.516;13.508;2023-07-31T01:15:18;15.19;99.99
69823;SHT31;57119;52.516;13.508;2023-07-31T01:17:44;15.20;99.99
69823;SHT31;57119;52.516;13.508;2023-07-31T01:20:17;15.19;99.99
69823;SHT31;57119;52.516;13.508;2023-07-31T01:25:56;15.19;99.99
69823;SHT31;57119;52.516;13.508;2023-07-31T01:28:45;15.27;99.99
69823;SHT31;57119;52.516;13.508;2023-07-31T01:31:17;15.20;99.99
69823;SHT31;57119;52.516;13.508;2023-07-31T01:33:43;15.18;99.99
69823;SHT31;57119;52.516;13.508;2023-07-31T01:36:10;15.22;99.99
69823;SHT31;57119;52.516;13.508;2023-07-31T01:38:35;15.30;99.99
69823;SHT31;57119;52.516;13.508;2023-07-31T01:41:00;15.20;99.99
69823;SHT31;57119;52.516;13.508;2023-07-31T01:43:26;15.19;99.99
69823;SHT31;57119;52.516;13.508;2023-07-31T01:45:51;15.27;99.99
69823;SHT31;57119;52.516;13.508;2023-07-31T01:48:17;15.22;99.99
69823;SHT31;57119;52.516;13.508;2023-07-31T01:50:42;15.29;99.99
69823;SHT31;57119;52.516;13.508;2023-07-31T01:53:08;15.33;99.99
69823;SHT31;57119;52.516;13.508;2023-07-31T01:55:39;15.35;99.99
69823;SHT31;57119;52.516;13.508;2023-07-31T01:58:05;15.33;99.99
69823;SHT31;57119;52.516;13.508;2023-07-31T02:00:30;15.35;99.99
69823;SHT31;57119;52.516;13.508;2023-07-31T02:02:55;15.39;99.99
69823;SHT31;57119;52.516;13.508;2023-07-31T02:05:21;15.35;99.99
69823;SHT31;57119;52.516;13.508;2023-07-31T02:07:46;15.43;99.99
69823;SHT31;57119;52.516;13.508;2023-07-31T02:10:12;15.46;99.99
69823;SHT31;57119;52.516;13.508;2023-07-31T02:12:38;15.40;99.99
69823;SHT31;57119;52.516;13.508;2023-07-31T02:15:03;15.36;99.99
69823;SHT31;57119;52.516;13.508;2023-07-31T02:17:29;15.32;99.99
69823;SHT31;57119;52.516;13.508;2023-07-31T02:19:55;15.23;99.99
69823;SHT31;57119;52.516;13.508;2023-07-31T02:22:20;15.25;99.99
69823;SHT31;57119;52.516;13.508;2023-07-31T02:24:45;15.19;99.99
69823;SHT31;57119;52.516;13.508;2023-07-31T02:27:11;15.22;99.99
69823;SHT31;57119;52.516;13.508;2023-07-31T02:29:36;15.18;99.99
69823;SHT31;57119;52.516;13.508;2023-07-31T02:32:02;15.19;99.99
69823;SHT31;57119;52.516;13.508;2023-07-31T02:34:28;15.20;99.99
69823;SHT31;57119;52.516;13.508;2023-07-31T02:36:53;15.22;99.99
69823;SHT31;57119;52.516;13.508;2023-07-31T02:39:19;15.29;99.99
69823;SHT31;57119;52.516;13.508;2023-07-31T02:41:44;15.27;99.99
69823;SHT31;57119;52.516;13.508;2023-07-31T02:44:10;15.23;99.99
69823;SHT31;57119;52.516;13.508;2023-07-31T02:46:35;15.22;99.99
69823;SHT31;57119;52.516;13.508;2023-07-31T02:49:01;15.20;99.99
69823;SHT31;57119;52.516;13.508;2023-07-31T02:51:26;15.25;99.99
69823;SHT31;57119;52.516;13.508;2023-07-31T02:53:52;15.22;99.99
69823;SHT31;57119;52.516;13.508;2023-07-31T02:56:17;15.23;99.99
69823;SHT31;57119;52.516;13.508;2023-07-31T02:58:42;15.27;99.99
69823;SHT31;57119;52.516;13.508;2023-07-31T03:01:08;15.20;99.99
69823;SHT31;57119;52.516;13.508;2023-07-31T03:03:33;15.18;99.99
69823;SHT31;57119;52.516;13.508;2023-07-31T03:05:59;15.26;99.99
69823;SHT31;57119;52.516;13.508;2023-07-31T03:08:24;15.25;99.99
69823;SHT31;57119;52.516;13.508;2023-07-31T03:10:49;15.23;99.99
69823;SHT31;57119;52.516;13.508;2023-07-31T03:13:15;15.27;99.99
69823;SHT31;57119;52.516;13.508;2023-07-31T03:15:43;15.23;99.99
69823;SHT31;57119;52.516;13.508;2023-07-31T03:18:09;15.29;99.99
69823;SHT31;57119;52.516;13.508;2023-07-31T03:20:34;15.35;99.99
69823;SHT31;57119;52.516;13.508;2023-07-31T03:23:00;15.35;99.99
69823;SHT31;57119;52.516;13.508;2023-07-31T03:25:25;15.26;99.99
69823;SHT31;57119;52.516;13.508;2023-07-31T03:27:51;15.29;99.99
69823;SHT31;57119;52.516;13.508;2023-07-31T03:30:16;15.36;99.99
69823;SHT31;57119;52.516;13.508;2023-07-31T03:32:42;15.30;99.99
69823;SHT31;57119;52.516;13.508;2023-07-31T03:35:07;15.35;99.99
69823;SHT31;57119;52.516;13.508;2023-07-31T03:37:33;15.32;99.99
69823;SHT31;57119;52.516;13.508;2023-07-31T03:39:58;15.35;99.99
69823;SHT31;57119;52.516;13.508;2023-07-31T03:42:24;15.36;99.99
69823;SHT31;57119;52.516;13.508;2023-07-31T03:44:49;15.30;99.99
69823;SHT31;57119;52.516;13.508;2023-07-31T03:47:15;15.29;99.99
69823;SHT31;57119;52.516;13.508;2023-07-31T03:49:43;15.35;99.99
69823;SHT31;57119;52.516;13.508;2023-07-31T03:52:08;15.35;99.99
69823;SHT31;57119;52.516;13.508;2023-07-31T03:54:34;15.36;99.99
69823;SHT31;57119;52.516;13.508;2023-07-31T03:56:59;15.33;99.99
69823;SHT31;57119;52.516;13.508;2023-07-31T03:59:24;15.37;99.99
69823;SHT31;57119;52.516;13.508;2023-07-31T04:01:50;15.27;99.99
69823;SHT31;57119;52.516;13.508;2023-07-31T04:04:15;15.40;99.99
69823;SHT31;57119;52.516;13.508;2023-07-31T04:06:40;15.37;99.99
69823;SHT31;57119;52.516;13.508;2023-07-31T04:09:06;15.36;99.99
69823;SHT31;57119;52.516;13.508;2023-07-31T04:11:31;15.33;99.99
69823;SHT31;57119;52.516;13.508;2023-07-31T04:13:57;15.33;99.99
69823;SHT31;57119;52.516;13.508;2023-07-31T04:16:22;15.35;99.99
69823;SHT31;57119;52.516;13.508;2023-07-31T04:18:48;15.43;99.99
69823;SHT31;57119;52.516;13.508;2023-07-31T04:21:19;15.44;99.99
69823;SHT31;57119;52.516;13.508;2023-07-31T04:23:44;15.46;99.99
69823;SHT31;57119;52.516;13.508;2023-07-31T04:26:10;15.50;99.99
69823;SHT31;57119;52.516;13.508;2023-07-31T04:28:35;15.58;99.99
69823;SHT31;57119;52.516;13.508;2023-07-31T04:31:01;15.53;99.99
69823;SHT31;57119;52.516;13.508;2023-07-31T04:33:26;15.56;99.99
69823;SHT31;57119;52.516;13.508;2023-07-31T04:35:53;15.53;99.99
69823;SHT31;57119;52.516;13.508;2023-07-31T04:38:19;15.63;99.99
69823;SHT31;57119;52.516;13.508;2023-07-31T04:40:46;15.64;99.99
69823;SHT31;57119;52.516;13.508;2023-07-31T04:43:11;15.73;99.99
69823;SHT31;57119;52.516;13.508;2023-07-31T04:45:37;15.74;99.99
69823;SHT31;57119;52.516;13.508;2023-07-31T04:48:02;15.67;99.99
69823;SHT31;57119;52.516;13.508;2023-07-31T04:50:28;15.73;99.99
69823;SHT31;57119;52.516;13.508;2023-07-31T04:52:55;15.77;99.99
69823;SHT31;57119;52.516;13.508;2023-07-31T04:55:21;15.78;99.99
69823;SHT31;57119;52.516;13.508;2023-07-31T04:57:46;15.73;99.99
69823;SHT31;57119;52.516;13.508;2023-07-31T05:00:11;15.77;99.99
69823;SHT31;57119;52.516;13.508;2023-07-31T05:02:39;15.87;99.99
69823;SHT31;57119;52.516;13.508;2023-07-31T05:05:05;15.88;99.99
69823;SHT31;57119;52.516;13.508;2023-07-31T05:07:30;15.87;99.99
69823;SHT31;57119;52.516;13.508;2023-07-31T05:09:55;15.90;99.99
69823;SHT31;57119;52.516;13.508;2023-07-31T05:12:21;15.94;99.99
69823;SHT31;57119;52.516;13.508;2023-07-31T05:14:46;16.06;99.99
69823;SHT31;57119;52.516;13.508;2023-07-31T05:17:12;16.13;99.99
69823;SHT31;57119;52.516;13.508;2023-07-31T05:19:37;16.29;99.99
69823;SHT31;57119;52.516;13.508;2023-07-31T05:22:06;16.29;99.99
69823;SHT31;57119;52.516;13.508;2023-07-31T05:24:31;16.32;99.99
69823;SHT31;57119;52.516;13.508;2023-07-31T05:26:57;16.19;99.99
69823;SHT31;57119;52.516;13.508;2023-07-31T05:29:22;16.23;99.99
69823;SHT31;57119;52.516;13.508;2023-07-31T05:31:47;16.13;99.99
69823;SHT31;57119;52.516;13.508;2023-07-31T05:34:13;16.18;99.99
69823;SHT31;57119;52.516;13.508;2023-07-31T05:36:38;16.22;99.99
69823;SHT31;57119;52.516;13.508;2023-07-31T05:39:04;16.23;99.99
69823;SHT31;57119;52.516;13.508;2023-07-31T05:41:32;16.38;99.99
69823;SHT31;57119;52.516;13.508;2023-07-31T05:43:57;16.26;99.99
69823;SHT31;57119;52.516;13.508;2023-07-31T05:46:23;16.36;99.99
69823;SHT31;57119;52.516;13.508;2023-07-31T05:48:48;16.30;99.99
69823;SHT31;57119;52.516;13.508;2023-07-31T05:51:13;16.32;99.99
69823;SHT31;57119;52.516;13.508;2023-07-31T05:53:39;16.29;99.99
69823;SHT31;57119;52.516;13.508;2023-07-31T05:56:05;16.30;99.99
69823;SHT31;57119;52.516;13.508;2023-07-31T05:58:31;16.28;99.99
69823;SHT31;57119;52.516;13.508;2023-07-31T06:00:56;16.38;99.99
69823;SHT31;57119;52.516;13.508;2023-07-31T06:03:22;16.26;99.99
69823;SHT31;57119;52.516;13.508;2023-07-31T06:05:47;16.45;99.99
69823;SHT31;57119;52.516;13.508;2023-07-31T06:08:13;16.36;99.99
69823;SHT31;57119;52.516;13.508;2023-07-31T06:10:38;16.53;99.99
69823;SHT31;57119;52.516;13.508;2023-07-31T06:13:03;16.55;99.99
69823;SHT31;57119;52.516;13.508;2023-07-31T06:15:29;16.59;99.99
69823;SHT31;57119;52.516;13.508;2023-07-31T06:17:54;16.70;99.99
69823;SHT31;57119;52.516;13.508;2023-07-31T06:20:20;16.50;99.99
69823;SHT31;57119;52.516;13.508;2023-07-31T06:22:45;16.69;99.99
69823;SHT31;57119;52.516;13.508;2023-07-31T06:25:11;16.64;99.99
69823;SHT31;57119;52.516;13.508;2023-07-31T06:27:37;16.74;99.99
69823;SHT31;57119;52.516;13.508;2023-07-31T06:30:03;16.79;99.99
69823;SHT31;57119;52.516;13.508;2023-07-31T06:32:28;16.83;99.99
69823;SHT31;57119;52.516;13.508;2023-07-31T06:34:53;16.79;99.99
69823;SHT31;57119;52.516;13.508;2023-07-31T06:37:19;16.59;99.99
69823;SHT31;57119;52.516;13.508;2023-07-31T06:39:44;16.67;99.99
69823;SHT31;57119;52.516;13.508;2023-07-31T06:42:10;16.76;99.99
69823;SHT31;57119;52.516;13.508;2023-07-31T06:44:35;16.70;99.99
69823;SHT31;57119;52.516;13.508;2023-07-31T06:47:01;16.98;99.99
69823;SHT31;57119;52.516;13.508;2023-07-31T06:49:26;16.94;99.99
69823;SHT31;57119;52.516;13.508;2023-07-31T06:51:51;16.74;99.99
69823;SHT31;57119;52.516;13.508;2023-07-31T06:54:17;17.07;99.99
69823;SHT31;57119;52.516;13.508;2023-07-31T06:56:42;17.08;99.99
69823;SHT31;57119;52.516;13.508;2023-07-31T06:59:08;17.08;99.99
69823;SHT31;57119;52.516;13.508;2023-07-31T07:01:33;17.06;99.99
69823;SHT31;57119;52.516;13.508;2023-07-31T07:03:58;16.98;99.99
69823;SHT31;57119;52.516;13.508;2023-07-31T07:06:24;17.15;99.99
69823;SHT31;57119;52.516;13.508;2023-07-31T07:08:49;17.21;99.99
69823;SHT31;57119;52.516;13.508;2023-07-31T07:11:14;17.08;99.99
69823;SHT31;57119;52.516;13.508;2023-07-31T07:13:40;16.92;99.99
69823;SHT31;57119;52.516;13.508;2023-07-31T07:16:05;16.91;99.99
69823;SHT31;57119;52.516;13.508;2023-07-31T07:18:31;16.81;99.99
69823;SHT31;57119;52.516;13.508;2023-07-31T07:20:56;16.79;99.99
69823;SHT31;57119;52.516;13.508;2023-07-31T07:23:23;16.83;99.99
69823;SHT31;57119;52.516;13.508;2023-07-31T07:25:49;16.87;99.99
69823;SHT31;57119;52.516;13.508;2023-07-31T07:28:14;16.79;99.99
69823;SHT31;57119;52.516;13.508;2023-07-31T07:30:40;16.94;99.99
69823;SHT31;57119;52.516;13.508;2023-07-31T07:33:06;17.04;99.99
69823;SHT31;57119;52.516;13.508;2023-07-31T07:35:35;17.55;99.99
69823;SHT31;57119;52.516;13.508;2023-07-31T07:38:01;17.40;99.99
69823;SHT31;57119;52.516;13.508;2023-07-31T07:40:26;17.56;99.86
69823;SHT31;57119;52.516;13.508;2023-07-31T07:42:52;17.50;99.99
69823;SHT31;57119;52.516;13.508;2023-07-31T07:45:17;17.76;99.23
69823;SHT31;57119;52.516;13.508;2023-07-31T07:47:43;17.91;99.34
69823;SHT31;57119;52.516;13.508;2023-07-31T07:50:08;18.11;98.98
69823;SHT31;57119;52.516;13.508;2023-07-31T07:52:34;18.30;97.81
69823;SHT31;57119;52.516;13.508;2023-07-31T07:54:59;18.08;97.80
69823;SHT31;57119;52.516;13.508;2023-07-31T07:57:25;18.13;97.77
69823;SHT31;57119;52.516;13.508;2023-07-31T07:59:51;18.41;97.80
69823;SHT31;57119;52.516;13.508;2023-07-31T08:02:16;18.08;98.15
69823;SHT31;57119;52.516;13.508;2023-07-31T08:04:41;17.98;98.19
69823;SHT31;57119;52.516;13.508;2023-07-31T08:07:07;17.89;98.38
69823;SHT31;57119;52.516;13.508;2023-07-31T08:09:32;17.70;99.51
69823;SHT31;57119;52.516;13.508;2023-07-31T08:11:57;17.94;98.72
69823;SHT31;57119;52.516;13.508;2023-07-31T08:14:27;18.07;98.42
69823;SHT31;57119;52.516;13.508;2023-07-31T08:16:52;17.90;99.20
69823;SHT31;57119;52.516;13.508;2023-07-31T08:19:18;17.94;98.90
69823;SHT31;57119;52.516;13.508;2023-07-31T08:21:43;17.61;99.99
69823;SHT31;57119;52.516;13.508;2023-07-31T08:24:08;17.66;99.99
69823;SHT31;57119;52.516;13.508;2023-07-31T08:26:34;17.52;99.99
69823;SHT31;57119;52.516;13.508;2023-07-31T08:28:59;17.32;99.99
69823;SHT31;57119;52.516;13.508;2023-07-31T08:31:25;17.53;99.99
69823;SHT31;57119;52.516;13.508;2023-07-31T08:33:50;17.80;99.59
69823;SHT31;57119;52.516;13.508;2023-07-31T08:36:15;17.79;99.99
69823;SHT31;57119;52.516;13.508;2023-07-31T08:38:41;17.67;99.99
69823;SHT31;57119;52.516;13.508;2023-07-31T08:41:06;17.63;99.99
69823;SHT31;57119;52.516;13.508;2023-07-31T08:43:32;17.48;99.99
69823;SHT31;57119;52.516;13.508;2023-07-31T08:46:04;17.67;99.99
69823;SHT31;57119;52.516;13.508;2023-07-31T08:48:33;17.59;99.99
69823;SHT31;57119;52.516;13.508;2023-07-31T08:50:59;17.42;99.99
69823;SHT31;57119;52.516;13.508;2023-07-31T08:53:25;17.49;99.99
69823;SHT31;57119;52.516;13.508;2023-07-31T08:55:52;17.46;99.99
69823;SHT31;57119;52.516;13.508;2023-07-31T08:58:18;17.61;99.99
69823;SHT31;57119;52.516;13.508;2023-07-31T09:00:46;17.93;99.99
69823;SHT31;57119;52.516;13.508;2023-07-31T09:03:15;18.21;99.39
69823;SHT31;57119;52.516;13.508;2023-07-31T09:05:43;18.33;98.57
69823;SHT31;57119;52.516;13.508;2023-07-31T09:08:11;18.59;98.77
69823;SHT31;57119;52.516;13.508;2023-07-31T09:10:44;18.43;98.66
69823;SHT31;57119;52.516;13.508;2023-07-31T09:13:13;18.21;99.45
69823;SHT31;57119;52.516;13.508;2023-07-31T09:15:40;18.56;98.55
69823;SHT31;57119;52.516;13.508;2023-07-31T09:18:06;18.73;97.85
69823;SHT31;57119;52.516;13.508;2023-07-31T09:20:32;18.55;98.28
69823;SHT31;57119;52.516;13.508;2023-07-31T09:23:10;18.44;98.46
69823;SHT31;57119;52.516;13.508;2023-07-31T09:25:35;18.31;99.70
69823;SHT31;57119;52.516;13.508;2023-07-31T09:28:06;18.06;99.99
69823;SHT31;57119;52.516;13.508;2023-07-31T09:30:47;17.86;99.99
69823;SHT31;57119;52.516;13.508;2023-07-31T09:33:13;17.96;99.99
69823;SHT31;57119;52.516;13.508;2023-07-31T09:35:39;18.07;99.99
69823;SHT31;57119;52.516;13.508;2023-07-31T09:38:10;18.00;99.99
69823;SHT31;57119;52.516;13.508;2023-07-31T09:40:38;17.75;99.99
69823;SHT31;57119;52.516;13.508;2023-07-31T09:43:08;17.46;99.99
69823;SHT31;57119;52.516;13.508;2023-07-31T09:45:36;17.55;99.99
69823;SHT31;57119;52.516;13.508;2023-07-31T09:48:02;17.24;99.99
69823;SHT31;57119;52.516;13.508;2023-07-31T09:50:28;17.43;99.99
69823;SHT31;57119;52.516;13.508;2023-07-31T09:52:54;17.48;99.99
69823;SHT31;57119;52.516;13.508;2023-07-31T09:55:20;17.45;99.99
69823;SHT31;57119;52.516;13.508;2023-07-31T09:57:47;17.43;99.99
69823;SHT31;57119;52.516;13.508;2023-07-31T10:00:14;17.76;99.99
69823;SHT31;57119;52.516;13.508;2023-07-31T10:02:40;17.75;99.99
69823;SHT31;57119;52.516;13.508;2023-07-31T10:05:07;17.83;99.99
69823;SHT31;57119;52.516;13.508;2023-07-31T10:07:39;18.04;99.60
69823;SHT31;57119;52.516;13.508;2023-07-31T10:10:07;18.13;99.65
69823;SHT31;57119;52.516;13.508;2023-07-31T10:12:34;18.07;99.60
69823;SHT31;57119;52.516;13.508;2023-07-31T10:15:01;18.31;99.36
69823;SHT31;57119;52.516;13.508;2023-07-31T10:17:29;18.76;97.65
69823;SHT31;57119;52.516;13.508;2023-07-31T10:19:57;18.79;97.55
69823;SHT31;57119;52.516;13.508;2023-07-31T10:22:23;18.56;97.73
69823;SHT31;57119;52.516;13.508;2023-07-31T10:24:50;18.77;97.52
69823;SHT31;57119;52.516;13.508;2023-07-31T10:27:15;18.61;97.95
69823;SHT31;57119;52.516;13.508;2023-07-31T10:29:43;18.54;98.31
69823;SHT31;57119;52.516;13.508;2023-07-31T10:32:09;18.30;98.78
69823;SHT31;57119;52.516;13.508;2023-07-31T10:34:38;18.27;98.83
69823;SHT31;57119;52.516;13.508;2023-07-31T10:37:24;18.44;99.67
69823;SHT31;57119;52.516;13.508;2023-07-31T10:40:01;18.71;99.94
69823;SHT31;57119;52.516;13.508;2023-07-31T10:42:29;19.07;98.87
69823;SHT31;57119;52.516;13.508;2023-07-31T10:44:58;19.04;98.31
69823;SHT31;57119;52.516;13.508;2023-07-31T10:47:24;19.24;97.45
69823;SHT31;57119;52.516;13.508;2023-07-31T10:49:49;19.23;97.18
69823;SHT31;57119;52.516;13.508;2023-07-31T10:52:20;19.85;95.80
69823;SHT31;57119;52.516;13.508;2023-07-31T10:54:49;20.19;94.67
69823;SHT31;57119;52.516;13.508;2023-07-31T10:57:22;21.43;91.51
69823;SHT31;57119;52.516;13.508;2023-07-31T10:59:49;22.02;89.53
69823;SHT31;57119;52.516;13.508;2023-07-31T11:02:25;21.39;90.58
69823;SHT31;57119;52.516;13.508;2023-07-31T11:05:10;21.42;90.59
69823;SHT31;57119;52.516;13.508;2023-07-31T11:07:49;21.47;90.89
69823;SHT31;57119;52.516;13.508;2023-07-31T11:10:18;21.63;90.35
69823;SHT31;57119;52.516;13.508;2023-07-31T11:12:45;21.06;89.43
69823;SHT31;57119;52.516;13.508;2023-07-31T11:15:11;21.63;89.88
69823;SHT31;57119;52.516;13.508;2023-07-31T11:17:40;21.49;89.35
69823;SHT31;57119;52.516;13.508;2023-07-31T11:20:06;20.90;89.01
69823;SHT31;57119;52.516;13.508;2023-07-31T11:22:34;20.75;89.29
69823;SHT31;57119;52.516;13.508;2023-07-31T11:24:59;20.96;89.36
69823;SHT31;57119;52.516;13.508;2023-07-31T11:27:28;21.59;87.06
69823;SHT31;57119;52.516;13.508;2023-07-31T11:30:00;21.38;87.34
69823;SHT31;57119;52.516;13.508;2023-07-31T11:32:25;21.50;86.77
69823;SHT31;57119;52.516;13.508;2023-07-31T11:34:55;21.94;84.90
69823;SHT31;57119;52.516;13.508;2023-07-31T11:37:20;21.57;84.53
69823;SHT31;57119;52.516;13.508;2023-07-31T11:40:01;21.77;84.39
69823;SHT31;57119;52.516;13.508;2023-07-31T11:42:27;21.66;84.40
69823;SHT31;57119;52.516;13.508;2023-07-31T11:44:52;21.47;85.26
69823;SHT31;57119;52.516;13.508;2023-07-31T11:47:17;21.56;84.64
69823;SHT31;57119;52.516;13.508;2023-07-31T11:49:43;21.35;83.87
69823;SHT31;57119;52.516;13.508;2023-07-31T11:52:10;21.14;84.39
69823;SHT31;57119;52.516;13.508;2023-07-31T11:54:36;21.15;84.78
69823;SHT31;57119;52.516;13.508;2023-07-31T11:57:02;21.14;84.66
69823;SHT31;57119;52.516;13.508;2023-07-31T11:59:28;21.06;84.53
69823;SHT31;57119;52.516;13.508;2023-07-31T12:01:53;21.04;85.30
69823;SHT31;57119;52.516;13.508;2023-07-31T12:04:20;20.88;84.63
69823;SHT31;57119;52.516;13.508;2023-07-31T12:06:47;20.70;85.81
69823;SHT31;57119;52.516;13.508;2023-07-31T12:09:14;20.64;85.56
69823;SHT31;57119;52.516;13.508;2023-07-31T12:11:46;20.51;86.39
69823;SHT31;57119;52.516;13.508;2023-07-31T12:14:28;20.41;86.94
69823;SHT31;57119;52.516;13.508;2023-07-31T12:16:58;20.48;86.75
69823;SHT31;57119;52.516;13.508;2023-07-31T12:19:27;20.88;86.04
69823;SHT31;57119;52.516;13.508;2023-07-31T12:21:58;21.21;85.37
69823;SHT31;57119;52.516;13.508;2023-07-31T12:24:24;21.33;85.22
69823;SHT31;57119;52.516;13.508;2023-07-31T12:26:49;21.52;84.57
69823;SHT31;57119;52.516;13.508;2023-07-31T12:29:15;21.60;83.23
69823;SHT31;57119;52.516;13.508;2023-07-31T12:31:43;21.94;82.67
69823;SHT31;57119;52.516;13.508;2023-07-31T12:34:16;21.71;81.83
69823;SHT31;57119;52.516;13.508;2023-07-31T12:36:43;21.46;83.42
69823;SHT31;57119;52.516;13.508;2023-07-31T12:39:09;21.83;83.29
69823;SHT31;57119;52.516;13.508;2023-07-31T12:41:35;22.04;82.47
69823;SHT31;57119;52.516;13.508;2023-07-31T12:44:00;21.74;82.89
69823;SHT31;57119;52.516;13.508;2023-07-31T12:46:26;21.77;82.78
69823;SHT31;57119;52.516;13.508;2023-07-31T12:48:51;21.97;82.50
69823;SHT31;57119;52.516;13.508;2023-07-31T12:51:17;21.80;83.18
69823;SHT31;57119;52.516;13.508;2023-07-31T12:53:42;22.02;82.97
69823;SHT31;57119;52.516;13.508;2023-07-31T12:56:08;22.63;82.24
69823;SHT31;57119;52.516;13.508;2023-07-31T12:58:33;22.58;81.59
69823;SHT31;57119;52.516;13.508;2023-07-31T13:00:59;22.27;82.78
69823;SHT31;57119;52.516;13.508;2023-07-31T13:03:24;22.58;81.73
69823;SHT31;57119;52.516;13.508;2023-07-31T13:05:50;22.39;81.71
69823;SHT31;57119;52.516;13.508;2023-07-31T13:08:16;22.18;82.43
69823;SHT31;57119;52.516;13.508;2023-07-31T13:10:43;21.96;83.18
69823;SHT31;57119;52.516;13.508;2023-07-31T13:13:09;21.71;83.20
69823;SHT31;57119;52.516;13.508;2023-07-31T13:15:35;21.60;84.24
69823;SHT31;57119;52.516;13.508;2023-07-31T13:18:00;21.54;84.26
69823;SHT31;57119;52.516;13.508;2023-07-31T13:20:25;21.53;84.26
69823;SHT31;57119;52.516;13.508;2023-07-31T13:22:51;21.60;84.41
69823;SHT31;57119;52.516;13.508;2023-07-31T13:25:16;21.33;84.41
69823;SHT31;57119;52.516;13.508;2023-07-31T13:27:42;21.26;84.73
69823;SHT31;57119;52.516;13.508;2023-07-31T13:30:07;21.31;84.80
69823;SHT31;57119;52.516;13.508;2023-07-31T13:32:33;21.04;85.40
69823;SHT31;57119;52.516;13.508;2023-07-31T13:34:58;21.04;85.47
69823;SHT31;57119;52.516;13.508;2023-07-31T13:37:24;20.98;85.35
69823;SHT31;57119;52.516;13.508;2023-07-31T13:39:49;21.29;84.94
69823;SHT31;57119;52.516;13.508;2023-07-31T13:42:15;21.98;83.55
69823;SHT31;57119;52.516;13.508;2023-07-31T13:44:41;22.86;81.33
69823;SHT31;57119;52.516;13.508;2023-07-31T13:47:08;22.95;80.96
69823;SHT31;57119;52.516;13.508;2023-07-31T13:49:37;23.03;80.74
69823;SHT31;57119;52.516;13.508;2023-07-31T13:52:04;22.97;81.35
69823;SHT31;57119;52.516;13.508;2023-07-31T13:54:30;23.17;80.74
69823;SHT31;57119;52.516;13.508;2023-07-31T13:56:55;23.16;80.72
69823;SHT31;57119;52.516;13.508;2023-07-31T13:59:21;22.49;81.42
69823;SHT31;57119;52.516;13.508;2023-07-31T14:01:47;22.44;81.85
69823;SHT31;57119;52.516;13.508;2023-07-31T14:04:12;22.24;82.43
69823;SHT31;57119;52.516;13.508;2023-07-31T14:06:38;22.21;82.46
69823;SHT31;57119;52.516;13.508;2023-07-31T14:09:04;22.12;82.80
69823;SHT31;57119;52.516;13.508;2023-07-31T14:11:33;22.37;82.71
69823;SHT31;57119;52.516;13.508;2023-07-31T14:13:58;22.17;82.73
69823;SHT31;57119;52.516;13.508;2023-07-31T14:16:24;22.28;82.56
69823;SHT31;57119;52.516;13.508;2023-07-31T14:18:49;22.51;82.05
69823;SHT31;57119;52.516;13.508;2023-07-31T14:21:15;22.31;82.40
69823;SHT31;57119;52.516;13.508;2023-07-31T14:23:41;22.48;81.77
69823;SHT31;57119;52.516;13.508;2023-07-31T14:26:06;22.27;82.35
69823;SHT31;57119;52.516;13.508;2023-07-31T14:28:32;22.19;82.77
69823;SHT31;57119;52.516;13.508;2023-07-31T14:30:58;22.18;82.75
69823;SHT31;57119;52.516;13.508;2023-07-31T14:33:23;22.05;83.00
69823;SHT31;57119;52.516;13.508;2023-07-31T14:35:49;21.90;83.27
69823;SHT31;57119;52.516;13.508;2023-07-31T14:38:14;21.97;83.38
69823;SHT31;57119;52.516;13.508;2023-07-31T14:40:41;22.15;83.06
69823;SHT31;57119;52.516;13.508;2023-07-31T14:43:07;22.34;83.04
69823;SHT31;57119;52.516;13.508;2023-07-31T14:45:33;22.59;82.42
69823;SHT31;57119;52.516;13.508;2023-07-31T14:47:58;22.39;81.99
69823;SHT31;57119;52.516;13.508;2023-07-31T14:50:25;22.34;82.44
69823;SHT31;57119;52.516;13.508;2023-07-31T14:52:51;22.39;82.97
69823;SHT31;57119;52.516;13.508;2023-07-31T14:55:18;22.37;82.13
69823;SHT31;57119;52.516;13.508;2023-07-31T14:57:43;22.27;81.83
69823;SHT31;57119;52.516;13.508;2023-07-31T15:00:09;22.21;82.14
69823;SHT31;57119;52.516;13.508;2023-07-31T15:02:36;22.12;82.23
69823;SHT31;57119;52.516;13.508;2023-07-31T15:05:01;22.00;82.72
69823;SHT31;57119;52.516;13.508;2023-07-31T15:07:27;21.83;83.20
69823;SHT31;57119;52.516;13.508;2023-07-31T15:09:52;21.74;82.98
69823;SHT31;57119;52.516;13.508;2023-07-31T15:12:18;21.77;82.75
69823;SHT31;57119;52.516;13.508;2023-07-31T15:14:43;21.74;82.90